sensor_id;sensor_type;location;lat;lon;timestamp;P1;durP1;ratioP1;P2;durP2;ratioP2
49217;SDS011;35045;51.194;7.268;2022-07-29T00:01:58;4.93;;;1.63;;
49217;SDS011;35045;51.194;7.268;2022-07-29T00:04:24;7.05;;;1.38;;
49217;SDS011;35045;51.194;7.268;2022-07-29T00:06:49;5.53;;;1.60;;
49217;SDS011;35045;51.194;7.268;2022-07-29T00:09:14;6.93;;;1.48;;
49217;SDS011;35045;51.194;7.268;2022-07-29T00:11:39;6.15;;;1.67;;
49217;SDS011;35045;51.194;7.268;2022-07-29T00:14:04;7.07;;;1.70;;
49217;SDS011;35045;51.194;7.268;2022-07-29T00:16:29;6.13;;;1.70;;
49217;SDS011;35045;51.194;7.268;2022-07-29T00:18:54;5.55;;;1.33;;
49217;SDS011;35045;51.194;7.268;2022-07-29T00:23:44;6.40;;;1.63;;
49217;SDS011;35045;51.194;7.268;2022-07-29T00:26:09;6.05;;;1.80;;
49217;SDS011;35045;51.194;7.268;2022-07-29T00:28:34;6.57;;;1.75;;
49217;SDS011;35045;51.194;7.268;2022-07-29T00:30:59;5.68;;;1.55;;
49217;SDS011;35045;51.194;7.268;2022-07-29T00:33:24;7.70;;;1.90;;
49217;SDS011;35045;51.194;7.268;2022-07-29T00:35:49;6.38;;;1.60;;
49217;SDS011;35045;51.194;7.268;2022-07-29T00:38:15;6.25;;;2.00;;
49217;SDS011;35045;51.194;7.268;2022-07-29T00:40:42;6.65;;;1.40;;
49217;SDS011;35045;51.194;7.268;2022-07-29T00:43:08;8.43;;;1.90;;
49217;SDS011;35045;51.194;7.268;2022-07-29T00:45:33;7.85;;;1.90;;
49217;SDS011;35045;51.194;7.268;2022-07-29T00:47:58;9.57;;;1.65;;
49217;SDS011;35045;51.194;7.268;2022-07-29T00:50:23;5.55;;;1.60;;
49217;SDS011;35045;51.194;7.268;2022-07-29T00:52:49;6.30;;;1.63;;
49217;SDS011;35045;51.194;7.268;2022-07-29T00:55:16;5.57;;;2.05;;
49217;SDS011;35045;51.194;7.268;2022-07-29T01:00:07;4.07;;;1.33;;
49217;SDS011;35045;51.194;7.268;2022-07-29T01:02:34;5.18;;;1.55;;
49217;SDS011;35045;51.194;7.268;2022-07-29T01:07:25;6.70;;;1.65;;
49217;SDS011;35045;51.194;7.268;2022-07-29T01:09:51;8.32;;;1.98;;
49217;SDS011;35045;51.194;7.268;2022-07-29T01:12:25;7.72;;;1.55;;
49217;SDS011;35045;51.194;7.268;2022-07-29T01:14:53;5.45;;;1.80;;
49217;SDS011;35045;51.194;7.268;2022-07-29T01:25:05;6.35;;;1.63;;
49217;SDS011;35045;51.194;7.268;2022-07-29T01:30:14;5.60;;;1.67;;
49217;SDS011;35045;51.194;7.268;2022-07-29T01:32:39;6.55;;;1.40;;
49217;SDS011;35045;51.194;7.268;2022-07-29T01:35:17;6.82;;;2.13;;
49217;SDS011;35045;51.194;7.268;2022-07-29T01:37:55;3.85;;;1.40;;
49217;SDS011;35045;51.194;7.268;2022-07-29T01:43:14;5.32;;;1.63;;
49217;SDS011;35045;51.194;7.268;2022-07-29T01:45:44;5.88;;;1.98;;
49217;SDS011;35045;51.194;7.268;2022-07-29T01:48:23;6.55;;;1.77;;
49217;SDS011;35045;51.194;7.268;2022-07-29T01:51:02;5.63;;;1.90;;
49217;SDS011;35045;51.194;7.268;2022-07-29T01:53:50;8.13;;;1.70;;
49217;SDS011;35045;51.194;7.268;2022-07-29T01:56:23;6.75;;;1.63;;
49217;SDS011;35045;51.194;7.268;2022-07-29T01:58:54;6.72;;;1.58;;
49217;SDS011;35045;51.194;7.268;2022-07-29T02:03:45;5.07;;;1.87;;
49217;SDS011;35045;51.194;7.268;2022-07-29T02:06:11;7.38;;;1.80;;
49217;SDS011;35045;51.194;7.268;2022-07-29T02:08:40;5.93;;;1.85;;
49217;SDS011;35045;51.194;7.268;2022-07-29T02:11:06;8.00;;;1.92;;
49217;SDS011;35045;51.194;7.268;2022-07-29T02:13:33;5.60;;;1.70;;
49217;SDS011;35045;51.194;7.268;2022-07-29T02:16:00;5.85;;;1.80;;
49217;SDS011;35045;51.194;7.268;2022-07-29T02:18:29;5.82;;;1.80;;
49217;SDS011;35045;51.194;7.268;2022-07-29T02:20:55;4.70;;;1.75;;
49217;SDS011;35045;51.194;7.268;2022-07-29T02:23:23;4.47;;;1.90;;
49217;SDS011;35045;51.194;7.268;2022-07-29T02:25:50;4.50;;;1.60;;
49217;SDS011;35045;51.194;7.268;2022-07-29T02:28:17;7.03;;;1.55;;
49217;SDS011;35045;51.194;7.268;2022-07-29T02:30:44;4.72;;;1.60;;
49217;SDS011;35045;51.194;7.268;2022-07-29T02:33:12;6.07;;;1.88;;
49217;SDS011;35045;51.194;7.268;2022-07-29T02:35:39;6.15;;;1.73;;
49217;SDS011;35045;51.194;7.268;2022-07-29T02:38:05;9.95;;;2.05;;
49217;SDS011;35045;51.194;7.268;2022-07-29T02:40:51;5.88;;;1.67;;
49217;SDS011;35045;51.194;7.268;2022-07-29T02:43:19;6.50;;;1.92;;
49217;SDS011;35045;51.194;7.268;2022-07-29T02:45:47;4.82;;;1.40;;
49217;SDS011;35045;51.194;7.268;2022-07-29T02:48:15;7.25;;;1.90;;
49217;SDS011;35045;51.194;7.268;2022-07-29T02:50:48;4.60;;;1.38;;
49217;SDS011;35045;51.194;7.268;2022-07-29T02:53:17;5.05;;;1.40;;
49217;SDS011;35045;51.194;7.268;2022-07-29T02:56:06;7.03;;;1.95;;
49217;SDS011;35045;51.194;7.268;2022-07-29T02:58:33;5.75;;;1.88;;
49217;SDS011;35045;51.194;7.268;2022-07-29T03:01:23;5.85;;;1.90;;
49217;SDS011;35045;51.194;7.268;2022-07-29T03:03:48;4.28;;;1.30;;
49217;SDS011;35045;51.194;7.268;2022-07-29T03:06:17;6.55;;;2.10;;
49217;SDS011;35045;51.194;7.268;2022-07-29T03:08:44;6.80;;;1.88;;
49217;SDS011;35045;51.194;7.268;2022-07-29T03:11:11;5.88;;;1.92;;
49217;SDS011;35045;51.194;7.268;2022-07-29T03:13:37;5.25;;;1.50;;
49217;SDS011;35045;51.194;7.268;2022-07-29T03:16:03;6.30;;;1.58;;
49217;SDS011;35045;51.194;7.268;2022-07-29T03:18:30;8.23;;;1.90;;
49217;SDS011;35045;51.194;7.268;2022-07-29T03:20:55;5.80;;;2.10;;
49217;SDS011;35045;51.194;7.268;2022-07-29T03:23:21;5.90;;;1.48;;
49217;SDS011;35045;51.194;7.268;2022-07-29T03:25:48;4.55;;;1.63;;
49217;SDS011;35045;51.194;7.268;2022-07-29T03:28:14;5.93;;;1.92;;
49217;SDS011;35045;51.194;7.268;2022-07-29T03:30:39;5.40;;;1.30;;
49217;SDS011;35045;51.194;7.268;2022-07-29T03:33:04;4.43;;;1.83;;
49217;SDS011;35045;51.194;7.268;2022-07-29T03:35:29;4.40;;;1.55;;
49217;SDS011;35045;51.194;7.268;2022-07-29T03:37:55;8.07;;;2.08;;
49217;SDS011;35045;51.194;7.268;2022-07-29T03:40:35;6.00;;;1.80;;
49217;SDS011;35045;51.194;7.268;2022-07-29T03:43:02;5.53;;;1.83;;
49217;SDS011;35045;51.194;7.268;2022-07-29T03:45:30;6.15;;;1.90;;
49217;SDS011;35045;51.194;7.268;2022-07-29T03:47:57;5.40;;;1.73;;
49217;SDS011;35045;51.194;7.268;2022-07-29T03:50:25;5.13;;;1.90;;
49217;SDS011;35045;51.194;7.268;2022-07-29T03:52:51;8.48;;;2.17;;
49217;SDS011;35045;51.194;7.268;2022-07-29T03:55:17;6.07;;;1.73;;
49217;SDS011;35045;51.194;7.268;2022-07-29T03:57:42;6.18;;;1.80;;
49217;SDS011;35045;51.194;7.268;2022-07-29T04:00:10;9.18;;;2.03;;
49217;SDS011;35045;51.194;7.268;2022-07-29T04:02:36;6.13;;;1.40;;
49217;SDS011;35045;51.194;7.268;2022-07-29T04:05:02;5.75;;;1.88;;
49217;SDS011;35045;51.194;7.268;2022-07-29T04:07:27;8.55;;;2.03;;
49217;SDS011;35045;51.194;7.268;2022-07-29T04:09:53;6.88;;;1.88;;
49217;SDS011;35045;51.194;7.268;2022-07-29T04:12:18;8.95;;;2.05;;
49217;SDS011;35045;51.194;7.268;2022-07-29T04:14:45;6.03;;;1.67;;
49217;SDS011;35045;51.194;7.268;2022-07-29T04:17:10;7.45;;;2.10;;
49217;SDS011;35045;51.194;7.268;2022-07-29T04:19:35;6.10;;;2.10;;
49217;SDS011;35045;51.194;7.268;2022-07-29T04:22:00;7.18;;;2.30;;
49217;SDS011;35045;51.194;7.268;2022-07-29T04:24:26;6.57;;;1.95;;
49217;SDS011;35045;51.194;7.268;2022-07-29T04:29:16;6.07;;;1.85;;
49217;SDS011;35045;51.194;7.268;2022-07-29T04:31:41;7.35;;;1.95;;
49217;SDS011;35045;51.194;7.268;2022-07-29T04:34:07;7.50;;;2.13;;
49217;SDS011;35045;51.194;7.268;2022-07-29T04:36:32;9.30;;;2.38;;
49217;SDS011;35045;51.194;7.268;2022-07-29T04:38:57;8.07;;;2.08;;
49217;SDS011;35045;51.194;7.268;2022-07-29T04:41:22;9.55;;;2.50;;
49217;SDS011;35045;51.194;7.268;2022-07-29T04:43:47;8.18;;;2.13;;
49217;SDS011;35045;51.194;7.268;2022-07-29T04:46:12;6.75;;;2.00;;
49217;SDS011;35045;51.194;7.268;2022-07-29T04:48:37;6.20;;;1.98;;
49217;SDS011;35045;51.194;7.268;2022-07-29T04:51:02;6.30;;;2.35;;
49217;SDS011;35045;51.194;7.268;2022-07-29T04:53:27;7.90;;;2.33;;
49217;SDS011;35045;51.194;7.268;2022-07-29T04:55:52;6.70;;;2.47;;
49217;SDS011;35045;51.194;7.268;2022-07-29T04:58:17;6.35;;;2.00;;
49217;SDS011;35045;51.194;7.268;2022-07-29T05:00:42;8.68;;;2.45;;
49217;SDS011;35045;51.194;7.268;2022-07-29T05:03:07;9.20;;;2.70;;
49217;SDS011;35045;51.194;7.268;2022-07-29T05:05:33;10.88;;;2.72;;
49217;SDS011;35045;51.194;7.268;2022-07-29T05:07:58;6.50;;;1.95;;
49217;SDS011;35045;51.194;7.268;2022-07-29T05:10:23;7.97;;;2.17;;
49217;SDS011;35045;51.194;7.268;2022-07-29T05:12:48;7.38;;;2.40;;
49217;SDS011;35045;51.194;7.268;2022-07-29T05:15:13;7.47;;;2.13;;
49217;SDS011;35045;51.194;7.268;2022-07-29T05:17:38;9.00;;;2.22;;
49217;SDS011;35045;51.194;7.268;2022-07-29T05:20:03;5.65;;;2.00;;
49217;SDS011;35045;51.194;7.268;2022-07-29T05:22:29;7.45;;;2.28;;
49217;SDS011;35045;51.194;7.268;2022-07-29T05:24:54;6.25;;;1.73;;
49217;SDS011;35045;51.194;7.268;2022-07-29T05:27:19;6.35;;;1.92;;
49217;SDS011;35045;51.194;7.268;2022-07-29T05:29:44;7.93;;;2.38;;
49217;SDS011;35045;51.194;7.268;2022-07-29T05:32:09;7.35;;;2.45;;
49217;SDS011;35045;51.194;7.268;2022-07-29T05:34:34;7.13;;;2.38;;
49217;SDS011;35045;51.194;7.268;2022-07-29T05:36:59;6.75;;;2.28;;
49217;SDS011;35045;51.194;7.268;2022-07-29T05:39:24;4.88;;;1.90;;
49217;SDS011;35045;51.194;7.268;2022-07-29T05:41:50;5.68;;;2.22;;
49217;SDS011;35045;51.194;7.268;2022-07-29T05:44:15;8.50;;;2.70;;
49217;SDS011;35045;51.194;7.268;2022-07-29T05:46:40;9.43;;;2.40;;
49217;SDS011;35045;51.194;7.268;2022-07-29T05:49:05;11.10;;;2.33;;
49217;SDS011;35045;51.194;7.268;2022-07-29T05:53:55;5.78;;;2.08;;
49217;SDS011;35045;51.194;7.268;2022-07-29T05:56:20;6.00;;;2.10;;
49217;SDS011;35045;51.194;7.268;2022-07-29T05:58:45;4.82;;;2.03;;
49217;SDS011;35045;51.194;7.268;2022-07-29T06:01:11;11.13;;;2.85;;
49217;SDS011;35045;51.194;7.268;2022-07-29T06:03:36;8.02;;;2.17;;
49217;SDS011;35045;51.194;7.268;2022-07-29T06:06:02;10.35;;;2.53;;
49217;SDS011;35045;51.194;7.268;2022-07-29T06:08:27;9.77;;;2.92;;
49217;SDS011;35045;51.194;7.268;2022-07-29T06:10:52;6.85;;;2.22;;
49217;SDS011;35045;51.194;7.268;2022-07-29T06:13:17;6.85;;;2.40;;
49217;SDS011;35045;51.194;7.268;2022-07-29T06:15:42;6.60;;;2.00;;
49217;SDS011;35045;51.194;7.268;2022-07-29T06:18:08;8.15;;;2.22;;
49217;SDS011;35045;51.194;7.268;2022-07-29T06:20:34;5.63;;;1.85;;
49217;SDS011;35045;51.194;7.268;2022-07-29T06:22:59;6.75;;;1.85;;
49217;SDS011;35045;51.194;7.268;2022-07-29T06:25:24;7.15;;;2.30;;
49217;SDS011;35045;51.194;7.268;2022-07-29T06:27:50;7.75;;;2.42;;
49217;SDS011;35045;51.194;7.268;2022-07-29T06:30:15;9.00;;;2.60;;
49217;SDS011;35045;51.194;7.268;2022-07-29T06:32:40;8.73;;;2.35;;
49217;SDS011;35045;51.194;7.268;2022-07-29T06:35:05;9.65;;;2.35;;
49217;SDS011;35045;51.194;7.268;2022-07-29T06:37:30;13.98;;;2.60;;
49217;SDS011;35045;51.194;7.268;2022-07-29T06:39:56;7.03;;;2.50;;
49217;SDS011;35045;51.194;7.268;2022-07-29T06:42:43;7.65;;;2.50;;
49217;SDS011;35045;51.194;7.268;2022-07-29T06:45:10;7.57;;;2.13;;
49217;SDS011;35045;51.194;7.268;2022-07-29T06:47:35;5.82;;;1.80;;
49217;SDS011;35045;51.194;7.268;2022-07-29T06:50:00;4.97;;;1.83;;
49217;SDS011;35045;51.194;7.268;2022-07-29T06:52:25;5.35;;;1.73;;
49217;SDS011;35045;51.194;7.268;2022-07-29T06:54:50;6.60;;;1.85;;
49217;SDS011;35045;51.194;7.268;2022-07-29T06:57:15;8.15;;;2.42;;
49217;SDS011;35045;51.194;7.268;2022-07-29T06:59:40;6.15;;;2.25;;
49217;SDS011;35045;51.194;7.268;2022-07-29T07:02:05;6.78;;;2.28;;
49217;SDS011;35045;51.194;7.268;2022-07-29T07:04:30;7.25;;;2.05;;
49217;SDS011;35045;51.194;7.268;2022-07-29T07:06:56;6.35;;;2.10;;
49217;SDS011;35045;51.194;7.268;2022-07-29T07:09:21;7.68;;;1.88;;
49217;SDS011;35045;51.194;7.268;2022-07-29T07:11:46;6.32;;;2.25;;
49217;SDS011;35045;51.194;7.268;2022-07-29T07:14:11;9.05;;;2.33;;
49217;SDS011;35045;51.194;7.268;2022-07-29T07:16:36;7.00;;;2.38;;
49217;SDS011;35045;51.194;7.268;2022-07-29T07:19:01;6.40;;;1.92;;
49217;SDS011;35045;51.194;7.268;2022-07-29T07:21:26;4.57;;;1.70;;
49217;SDS011;35045;51.194;7.268;2022-07-29T07:26:16;7.57;;;2.30;;
49217;SDS011;35045;51.194;7.268;2022-07-29T07:28:41;8.85;;;1.85;;
49217;SDS011;35045;51.194;7.268;2022-07-29T07:31:06;7.80;;;2.28;;
49217;SDS011;35045;51.194;7.268;2022-07-29T07:33:31;6.38;;;1.50;;
49217;SDS011;35045;51.194;7.268;2022-07-29T07:35:56;5.90;;;1.73;;
49217;SDS011;35045;51.194;7.268;2022-07-29T07:38:21;6.05;;;1.67;;
49217;SDS011;35045;51.194;7.268;2022-07-29T07:40:46;7.53;;;2.08;;
49217;SDS011;35045;51.194;7.268;2022-07-29T07:43:12;10.45;;;2.55;;
49217;SDS011;35045;51.194;7.268;2022-07-29T07:45:37;7.88;;;1.90;;
49217;SDS011;35045;51.194;7.268;2022-07-29T07:48:02;7.25;;;1.90;;
49217;SDS011;35045;51.194;7.268;2022-07-29T07:50:27;5.15;;;1.60;;
49217;SDS011;35045;51.194;7.268;2022-07-29T07:52:53;5.90;;;2.00;;
49217;SDS011;35045;51.194;7.268;2022-07-29T07:55:21;5.60;;;1.70;;
49217;SDS011;35045;51.194;7.268;2022-07-29T07:57:47;6.05;;;1.60;;
49217;SDS011;35045;51.194;7.268;2022-07-29T08:02:38;9.07;;;1.98;;
49217;SDS011;35045;51.194;7.268;2022-07-29T08:05:03;9.30;;;2.40;;
49217;SDS011;35045;51.194;7.268;2022-07-29T08:07:29;7.70;;;2.10;;
49217;SDS011;35045;51.194;7.268;2022-07-29T08:09:54;7.25;;;1.90;;
49217;SDS011;35045;51.194;7.268;2022-07-29T08:12:19;8.00;;;1.90;;
49217;SDS011;35045;51.194;7.268;2022-07-29T08:14:44;8.88;;;2.22;;
49217;SDS011;35045;51.194;7.268;2022-07-29T08:17:09;7.32;;;1.80;;
49217;SDS011;35045;51.194;7.268;2022-07-29T08:19:34;5.30;;;2.03;;
49217;SDS011;35045;51.194;7.268;2022-07-29T08:22:00;5.40;;;1.88;;
49217;SDS011;35045;51.194;7.268;2022-07-29T08:24:25;6.68;;;2.00;;
49217;SDS011;35045;51.194;7.268;2022-07-29T08:27:16;9.02;;;2.20;;
49217;SDS011;35045;51.194;7.268;2022-07-29T08:29:42;6.63;;;1.95;;
49217;SDS011;35045;51.194;7.268;2022-07-29T08:32:07;9.00;;;1.77;;
49217;SDS011;35045;51.194;7.268;2022-07-29T08:34:32;7.55;;;1.98;;
49217;SDS011;35045;51.194;7.268;2022-07-29T08:36:57;7.95;;;1.90;;
49217;SDS011;35045;51.194;7.268;2022-07-29T08:41:48;10.15;;;2.50;;
49217;SDS011;35045;51.194;7.268;2022-07-29T08:44:15;8.32;;;2.13;;
49217;SDS011;35045;51.194;7.268;2022-07-29T08:46:43;6.22;;;1.90;;
49217;SDS011;35045;51.194;7.268;2022-07-29T08:49:09;6.05;;;1.77;;
49217;SDS011;35045;51.194;7.268;2022-07-29T08:51:34;6.75;;;1.65;;
49217;SDS011;35045;51.194;7.268;2022-07-29T08:54:03;5.88;;;1.85;;
49217;SDS011;35045;51.194;7.268;2022-07-29T08:56:28;6.50;;;1.90;;
49217;SDS011;35045;51.194;7.268;2022-07-29T08:58:54;5.70;;;1.80;;
49217;SDS011;35045;51.194;7.268;2022-07-29T09:01:23;7.22;;;2.13;;
49217;SDS011;35045;51.194;7.268;2022-07-29T09:03:50;7.40;;;2.05;;
49217;SDS011;35045;51.194;7.268;2022-07-29T09:06:19;4.85;;;1.83;;
49217;SDS011;35045;51.194;7.268;2022-07-29T09:08:46;6.78;;;2.35;;
49217;SDS011;35045;51.194;7.268;2022-07-29T09:13:37;8.85;;;2.05;;
49217;SDS011;35045;51.194;7.268;2022-07-29T09:16:02;5.75;;;1.90;;
49217;SDS011;35045;51.194;7.268;2022-07-29T09:21:00;6.13;;;2.20;;
49217;SDS011;35045;51.194;7.268;2022-07-29T09:24:17;6.70;;;2.00;;
49217;SDS011;35045;51.194;7.268;2022-07-29T09:26:41;6.20;;;1.70;;
49217;SDS011;35045;51.194;7.268;2022-07-29T09:29:11;6.95;;;2.20;;
49217;SDS011;35045;51.194;7.268;2022-07-29T09:31:48;5.82;;;2.20;;
49217;SDS011;35045;51.194;7.268;2022-07-29T09:34:26;6.05;;;2.20;;
49217;SDS011;35045;51.194;7.268;2022-07-29T09:36:53;6.28;;;2.20;;
49217;SDS011;35045;51.194;7.268;2022-07-29T09:41:59;7.85;;;2.38;;
49217;SDS011;35045;51.194;7.268;2022-07-29T09:44:26;8.15;;;2.53;;
49217;SDS011;35045;51.194;7.268;2022-07-29T09:46:59;9.18;;;2.72;;
49217;SDS011;35045;51.194;7.268;2022-07-29T09:49:31;5.60;;;2.00;;
49217;SDS011;35045;51.194;7.268;2022-07-29T09:52:07;5.32;;;2.20;;
49217;SDS011;35045;51.194;7.268;2022-07-29T09:54:34;6.43;;;1.98;;
49217;SDS011;35045;51.194;7.268;2022-07-29T09:57:06;7.38;;;2.30;;
49217;SDS011;35045;51.194;7.268;2022-07-29T09:59:34;7.47;;;2.47;;
49217;SDS011;35045;51.194;7.268;2022-07-29T10:01:59;7.32;;;2.40;;
49217;SDS011;35045;51.194;7.268;2022-07-29T10:04:26;8.40;;;2.75;;
49217;SDS011;35045;51.194;7.268;2022-07-29T10:07:04;5.97;;;2.33;;
49217;SDS011;35045;51.194;7.268;2022-07-29T10:09:29;9.27;;;2.28;;
49217;SDS011;35045;51.194;7.268;2022-07-29T10:12:11;7.13;;;2.20;;
49217;SDS011;35045;51.194;7.268;2022-07-29T10:14:41;7.63;;;2.22;;
49217;SDS011;35045;51.194;7.268;2022-07-29T10:17:07;7.03;;;2.10;;
49217;SDS011;35045;51.194;7.268;2022-07-29T10:19:34;5.70;;;2.45;;
49217;SDS011;35045;51.194;7.268;2022-07-29T10:22:01;6.03;;;2.28;;
49217;SDS011;35045;51.194;7.268;2022-07-29T10:24:31;7.38;;;2.17;;
49217;SDS011;35045;51.194;7.268;2022-07-29T10:26:58;7.35;;;2.33;;
49217;SDS011;35045;51.194;7.268;2022-07-29T10:29:24;7.10;;;2.30;;
49217;SDS011;35045;51.194;7.268;2022-07-29T10:32:07;6.53;;;2.28;;
49217;SDS011;35045;51.194;7.268;2022-07-29T10:39:53;4.95;;;1.63;;
49217;SDS011;35045;51.194;7.268;2022-07-29T10:42:48;7.13;;;1.90;;
49217;SDS011;35045;51.194;7.268;2022-07-29T10:45:16;6.30;;;2.15;;
49217;SDS011;35045;51.194;7.268;2022-07-29T10:47:41;7.57;;;2.10;;
49217;SDS011;35045;51.194;7.268;2022-07-29T10:50:07;11.30;;;2.80;;
49217;SDS011;35045;51.194;7.268;2022-07-29T10:55:50;5.57;;;1.67;;
49217;SDS011;35045;51.194;7.268;2022-07-29T10:58:18;6.07;;;1.75;;
49217;SDS011;35045;51.194;7.268;2022-07-29T11:00:46;4.68;;;1.67;;
49217;SDS011;35045;51.194;7.268;2022-07-29T11:06:11;8.18;;;2.13;;
49217;SDS011;35045;51.194;7.268;2022-07-29T11:08:36;6.82;;;1.90;;
49217;SDS011;35045;51.194;7.268;2022-07-29T11:16:10;6.20;;;1.90;;
49217;SDS011;35045;51.194;7.268;2022-07-29T11:18:35;6.15;;;2.00;;
49217;SDS011;35045;51.194;7.268;2022-07-29T11:21:00;9.23;;;2.03;;
49217;SDS011;35045;51.194;7.268;2022-07-29T11:28:47;5.55;;;2.05;;
49217;SDS011;35045;51.194;7.268;2022-07-29T11:47:22;6.65;;;2.42;;
49217;SDS011;35045;51.194;7.268;2022-07-29T11:49:47;7.25;;;2.22;;
49217;SDS011;35045;51.194;7.268;2022-07-29T11:52:15;7.97;;;2.40;;
49217;SDS011;35045;51.194;7.268;2022-07-29T11:54:41;6.32;;;2.75;;
49217;SDS011;35045;51.194;7.268;2022-07-29T11:57:07;5.53;;;1.85;;
49217;SDS011;35045;51.194;7.268;2022-07-29T11:59:38;5.47;;;2.20;;
49217;SDS011;35045;51.194;7.268;2022-07-29T12:02:07;6.07;;;2.45;;
49217;SDS011;35045;51.194;7.268;2022-07-29T12:04:33;9.40;;;2.33;;
49217;SDS011;35045;51.194;7.268;2022-07-29T12:06:58;7.13;;;2.63;;
49217;SDS011;35045;51.194;7.268;2022-07-29T12:09:24;7.20;;;2.55;;
49217;SDS011;35045;51.194;7.268;2022-07-29T12:14:29;7.55;;;2.60;;
49217;SDS011;35045;51.194;7.268;2022-07-29T12:16:56;9.57;;;2.17;;
49217;SDS011;35045;51.194;7.268;2022-07-29T12:19:22;10.05;;;3.05;;
49217;SDS011;35045;51.194;7.268;2022-07-29T12:22:09;6.78;;;2.70;;
49217;SDS011;35045;51.194;7.268;2022-07-29T12:24:44;7.20;;;2.55;;
49217;SDS011;35045;51.194;7.268;2022-07-29T12:27:12;8.00;;;2.22;;
49217;SDS011;35045;51.194;7.268;2022-07-29T12:29:41;5.80;;;2.75;;
49217;SDS011;35045;51.194;7.268;2022-07-29T12:34:42;7.68;;;2.20;;
49217;SDS011;35045;51.194;7.268;2022-07-29T12:37:08;8.32;;;2.75;;
49217;SDS011;35045;51.194;7.268;2022-07-29T12:39:34;8.18;;;2.63;;
49217;SDS011;35045;51.194;7.268;2022-07-29T12:41:59;6.88;;;2.47;;
49217;SDS011;35045;51.194;7.268;2022-07-29T12:44:44;7.47;;;2.33;;
49217;SDS011;35045;51.194;7.268;2022-07-29T12:47:13;7.50;;;2.10;;
49217;SDS011;35045;51.194;7.268;2022-07-29T12:49:38;10.80;;;2.97;;
49217;SDS011;35045;51.194;7.268;2022-07-29T12:54:55;9.88;;;2.58;;
49217;SDS011;35045;51.194;7.268;2022-07-29T12:57:20;6.97;;;2.25;;
49217;SDS011;35045;51.194;7.268;2022-07-29T12:59:45;9.13;;;2.28;;
49217;SDS011;35045;51.194;7.268;2022-07-29T13:02:32;5.35;;;2.00;;
49217;SDS011;35045;51.194;7.268;2022-07-29T13:04:58;7.20;;;2.63;;
49217;SDS011;35045;51.194;7.268;2022-07-29T13:07:25;7.53;;;2.40;;
49217;SDS011;35045;51.194;7.268;2022-07-29T13:09:58;9.23;;;1.90;;
49217;SDS011;35045;51.194;7.268;2022-07-29T13:12:39;7.70;;;2.80;;
49217;SDS011;35045;51.194;7.268;2022-07-29T13:15:24;7.10;;;2.37;;
49217;SDS011;35045;51.194;7.268;2022-07-29T13:20:14;6.70;;;2.23;;
49217;SDS011;35045;51.194;7.268;2022-07-29T13:25:05;7.65;;;2.22;;
49217;SDS011;35045;51.194;7.268;2022-07-29T13:27:34;7.10;;;2.45;;
49217;SDS011;35045;51.194;7.268;2022-07-29T13:30:02;8.52;;;2.83;;
49217;SDS011;35045;51.194;7.268;2022-07-29T13:32:29;6.70;;;2.25;;
49217;SDS011;35045;51.194;7.268;2022-07-29T13:35:00;7.28;;;2.30;;
49217;SDS011;35045;51.194;7.268;2022-07-29T13:37:27;8.57;;;2.38;;
49217;SDS011;35045;51.194;7.268;2022-07-29T13:39:53;8.43;;;2.60;;
49217;SDS011;35045;51.194;7.268;2022-07-29T13:42:20;8.80;;;2.85;;
49217;SDS011;35045;51.194;7.268;2022-07-29T13:44:45;8.82;;;2.80;;
49217;SDS011;35045;51.194;7.268;2022-07-29T13:49:35;6.70;;;2.77;;
49217;SDS011;35045;51.194;7.268;2022-07-29T13:52:01;7.75;;;3.20;;
49217;SDS011;35045;51.194;7.268;2022-07-29T13:54:26;9.65;;;3.03;;
49217;SDS011;35045;51.194;7.268;2022-07-29T13:56:51;6.60;;;2.40;;
49217;SDS011;35045;51.194;7.268;2022-07-29T13:59:16;7.22;;;2.95;;
49217;SDS011;35045;51.194;7.268;2022-07-29T14:01:41;7.40;;;2.78;;
49217;SDS011;35045;51.194;7.268;2022-07-29T14:04:07;7.57;;;2.85;;
49217;SDS011;35045;51.194;7.268;2022-07-29T14:06:33;7.70;;;2.80;;
49217;SDS011;35045;51.194;7.268;2022-07-29T14:08:58;8.02;;;2.70;;
49217;SDS011;35045;51.194;7.268;2022-07-29T14:11:23;9.20;;;2.92;;
49217;SDS011;35045;51.194;7.268;2022-07-29T14:13:48;7.90;;;2.80;;
49217;SDS011;35045;51.194;7.268;2022-07-29T14:16:13;7.13;;;2.50;;
49217;SDS011;35045;51.194;7.268;2022-07-29T14:18:38;8.43;;;3.35;;
49217;SDS011;35045;51.194;7.268;2022-07-29T14:21:03;6.45;;;2.55;;
49217;SDS011;35045;51.194;7.268;2022-07-29T14:23:28;8.75;;;2.33;;
49217;SDS011;35045;51.194;7.268;2022-07-29T14:25:54;7.15;;;2.72;;
49217;SDS011;35045;51.194;7.268;2022-07-29T14:28:19;6.53;;;2.58;;
49217;SDS011;35045;51.194;7.268;2022-07-29T14:30:44;5.90;;;2.25;;
49217;SDS011;35045;51.194;7.268;2022-07-29T14:33:09;8.10;;;2.55;;
49217;SDS011;35045;51.194;7.268;2022-07-29T14:35:34;7.68;;;2.80;;
49217;SDS011;35045;51.194;7.268;2022-07-29T14:37:59;8.25;;;2.47;;
49217;SDS011;35045;51.194;7.268;2022-07-29T14:40:24;7.97;;;2.70;;
49217;SDS011;35045;51.194;7.268;2022-07-29T14:42:50;7.35;;;2.72;;
49217;SDS011;35045;51.194;7.268;2022-07-29T14:45:15;7.95;;;2.95;;
49217;SDS011;35045;51.194;7.268;2022-07-29T14:47:40;6.70;;;2.50;;
49217;SDS011;35045;51.194;7.268;2022-07-29T14:50:05;7.90;;;2.40;;
49217;SDS011;35045;51.194;7.268;2022-07-29T14:52:31;7.15;;;2.70;;
49217;SDS011;35045;51.194;7.268;2022-07-29T14:54:56;5.80;;;2.50;;
49217;SDS011;35045;51.194;7.268;2022-07-29T14:57:22;8.55;;;2.22;;
49217;SDS011;35045;51.194;7.268;2022-07-29T14:59:47;7.40;;;2.30;;
49217;SDS011;35045;51.194;7.268;2022-07-29T15:02:12;7.45;;;2.50;;
49217;SDS011;35045;51.194;7.268;2022-07-29T15:04:37;6.78;;;2.30;;
49217;SDS011;35045;51.194;7.268;2022-07-29T15:07:02;5.60;;;2.13;;
49217;SDS011;35045;51.194;7.268;2022-07-29T15:09:27;8.23;;;3.30;;
49217;SDS011;35045;51.194;7.268;2022-07-29T15:11:52;8.10;;;2.45;;
49217;SDS011;35045;51.194;7.268;2022-07-29T15:14:17;6.32;;;2.33;;
49217;SDS011;35045;51.194;7.268;2022-07-29T15:16:42;9.80;;;2.40;;
49217;SDS011;35045;51.194;7.268;2022-07-29T15:19:10;6.85;;;2.40;;
49217;SDS011;35045;51.194;7.268;2022-07-29T15:21:35;7.68;;;2.20;;
49217;SDS011;35045;51.194;7.268;2022-07-29T15:24:01;6.43;;;2.17;;
49217;SDS011;35045;51.194;7.268;2022-07-29T15:26:26;7.75;;;2.45;;
49217;SDS011;35045;51.194;7.268;2022-07-29T15:28:51;7.30;;;2.63;;
49217;SDS011;35045;51.194;7.268;2022-07-29T15:31:16;7.82;;;2.35;;
49217;SDS011;35045;51.194;7.268;2022-07-29T15:33:43;9.10;;;2.97;;
49217;SDS011;35045;51.194;7.268;2022-07-29T15:36:08;6.97;;;2.50;;
49217;SDS011;35045;51.194;7.268;2022-07-29T15:38:33;6.50;;;2.63;;
49217;SDS011;35045;51.194;7.268;2022-07-29T15:40:58;7.82;;;2.50;;
49217;SDS011;35045;51.194;7.268;2022-07-29T15:43:23;8.07;;;2.45;;
49217;SDS011;35045;51.194;7.268;2022-07-29T15:45:48;6.28;;;2.30;;
49217;SDS011;35045;51.194;7.268;2022-07-29T15:48:46;7.13;;;2.80;;
49217;SDS011;35045;51.194;7.268;2022-07-29T15:51:11;7.47;;;2.95;;
49217;SDS011;35045;51.194;7.268;2022-07-29T15:53:36;7.07;;;3.08;;
49217;SDS011;35045;51.194;7.268;2022-07-29T15:56:01;6.28;;;2.65;;
49217;SDS011;35045;51.194;7.268;2022-07-29T15:58:26;7.85;;;2.70;;
49217;SDS011;35045;51.194;7.268;2022-07-29T16:00:52;8.13;;;3.05;;
49217;SDS011;35045;51.194;7.268;2022-07-29T16:03:17;8.10;;;3.20;;
49217;SDS011;35045;51.194;7.268;2022-07-29T16:05:42;7.15;;;2.70;;
49217;SDS011;35045;51.194;7.268;2022-07-29T16:08:08;7.57;;;2.88;;
49217;SDS011;35045;51.194;7.268;2022-07-29T16:10:33;8.25;;;2.90;;
49217;SDS011;35045;51.194;7.268;2022-07-29T16:12:58;7.05;;;2.75;;
49217;SDS011;35045;51.194;7.268;2022-07-29T16:15:23;9.02;;;2.70;;
49217;SDS011;35045;51.194;7.268;2022-07-29T16:17:48;7.28;;;2.50;;
49217;SDS011;35045;51.194;7.268;2022-07-29T16:20:13;9.13;;;2.85;;
49217;SDS011;35045;51.194;7.268;2022-07-29T16:22:38;5.85;;;2.22;;
49217;SDS011;35045;51.194;7.268;2022-07-29T16:25:04;7.25;;;2.70;;